createdAt,value
2023-09-30T00:03:02.206Z,15.17
2023-09-30T00:09:04.302Z,15.09
2023-09-30T00:15:06.346Z,15.11
2023-09-30T00:21:08.845Z,15.15
2023-09-30T00:27:10.729Z,15.22
2023-09-30T00:33:12.579Z,15.18
2023-09-30T00:39:14.529Z,15.15
2023-09-30T00:45:16.233Z,15.18
2023-09-30T00:51:18.362Z,15.20
2023-09-30T00:57:21.956Z,15.28
2023-09-30T01:03:24.430Z,15.36
2023-09-30T01:09:26.563Z,15.41
2023-09-30T01:15:30.324Z,15.40
2023-09-30T01:21:35.631Z,15.36
2023-09-30T01:27:37.275Z,15.32
2023-09-30T01:33:39.634Z,15.22
2023-09-30T01:39:41.207Z,15.05
2023-09-30T01:45:44.065Z,14.92
2023-09-30T01:51:47.050Z,14.78
2023-09-30T01:57:48.691Z,14.62
2023-09-30T02:03:50.830Z,14.52
2023-09-30T02:09:52.440Z,14.52
2023-09-30T02:15:56.619Z,14.53
2023-09-30T02:21:58.460Z,14.49
2023-09-30T02:28:00.329Z,14.46
2023-09-30T02:34:04.921Z,14.38
2023-09-30T02:40:10.397Z,14.28
2023-09-30T02:46:13.772Z,14.21
2023-09-30T02:52:15.488Z,14.15
2023-09-30T02:58:17.140Z,14.13
2023-09-30T03:04:20.450Z,14.21
2023-09-30T03:10:25.093Z,14.28
2023-09-30T03:16:26.950Z,14.28
2023-09-30T03:22:28.516Z,14.23
2023-09-30T03:28:30.179Z,14.24
2023-09-30T03:34:31.761Z,14.36
2023-09-30T03:40:35.068Z,14.48
2023-09-30T03:46:36.711Z,14.52
2023-09-30T03:52:38.512Z,14.49
2023-09-30T03:58:41.354Z,14.46
2023-09-30T04:04:43.490Z,14.49
2023-09-30T04:10:45.171Z,14.53
2023-09-30T04:16:46.741Z,14.45
2023-09-30T04:22:50.187Z,14.33
2023-09-30T04:28:52.715Z,14.34
2023-09-30T04:34:54.747Z,14.36
2023-09-30T04:40:57.560Z,14.19
2023-09-30T04:46:59.201Z,14.08
2023-09-30T04:53:00.883Z,14.03
2023-09-30T04:59:03.324Z,13.90
2023-09-30T05:05:08.481Z,13.75
2023-09-30T05:11:10.076Z,13.67
2023-09-30T05:17:12.525Z,13.65
2023-09-30T05:23:15.757Z,13.84
2023-09-30T05:29:17.952Z,13.95
2023-09-30T05:35:19.601Z,14.15
2023-09-30T05:41:21.939Z,14.23
2023-09-30T05:47:23.709Z,14.24
2023-09-30T05:53:26.197Z,14.36
2023-09-30T05:59:29.178Z,14.51
2023-09-30T06:05:31.632Z,14.79
2023-09-30T06:11:33.627Z,15.29
2023-09-30T06:17:35.284Z,15.53
2023-09-30T06:23:36.936Z,16.23
2023-09-30T06:29:41.823Z,16.32
2023-09-30T06:35:51.357Z,16.22
2023-09-30T06:41:52.929Z,16.20
2023-09-30T06:47:55.959Z,16.32
2023-09-30T06:53:57.621Z,16.65
2023-09-30T06:59:59.296Z,16.98
2023-09-30T07:06:01.796Z,17.32
2023-09-30T07:12:03.407Z,17.11
2023-09-30T07:18:05.290Z,17.22
2023-09-30T07:24:07.244Z,19.91
2023-09-30T07:30:09.231Z,20.65
2023-09-30T07:36:10.868Z,19.89
2023-09-30T07:42:12.289Z,20.03
2023-09-30T07:48:15.942Z,20.00
2023-09-30T07:54:30.780Z,19.89
2023-09-30T08:00:34.995Z,19.32
2023-09-30T08:06:36.827Z,19.64
2023-09-30T08:12:38.573Z,19.75
2023-09-30T08:18:40.209Z,19.95
2023-09-30T08:24:42.759Z,21.97
2023-09-30T08:30:44.472Z,24.86
2023-09-30T08:36:46.086Z,26.56
2023-09-30T08:42:52.471Z,26.15
2023-09-30T08:48:56.630Z,23.43
2023-09-30T08:54:58.369Z,23.20
2023-09-30T09:01:00.044Z,23.79
2023-09-30T09:07:01.774Z,25.80
2023-09-30T09:13:03.525Z,26.47
2023-09-30T09:19:16.336Z,26.98
2023-09-30T09:25:18.225Z,26.18
2023-09-30T09:31:24.917Z,24.43
2023-09-30T09:37:26.515Z,23.14
2023-09-30T09:43:28.187Z,23.94
2023-09-30T09:49:33.817Z,25.89
2023-09-30T09:55:37.764Z,27.53
2023-09-30T10:01:41.481Z,28.14
2023-09-30T10:07:51.236Z,28.06
2023-09-30T10:13:54.861Z,28.11
2023-09-30T10:20:08.878Z,26.98
2023-09-30T10:26:10.586Z,27.88
2023-09-30T10:32:12.212Z,29.36
2023-09-30T10:38:23.137Z,29.93
2023-09-30T10:44:27.697Z,31.51
2023-09-30T10:50:52.229Z,31.30
2023-09-30T10:56:54.560Z,29.68
2023-09-30T11:02:57.567Z,29.54
2023-09-30T11:09:02.078Z,29.27
2023-09-30T11:15:04.374Z,29.44
2023-09-30T11:21:11.759Z,29.38
2023-09-30T11:27:13.599Z,28.86
2023-09-30T11:33:15.176Z,26.82
2023-09-30T11:39:28.395Z,27.00
2023-09-30T11:45:30.461Z,27.43
2023-09-30T11:51:44.642Z,28.53
2023-09-30T11:57:46.800Z,29.01
2023-09-30T12:03:53.775Z,28.66
2023-09-30T12:09:57.167Z,27.99
2023-09-30T12:15:58.888Z,28.23
2023-09-30T12:22:00.520Z,26.81
2023-09-30T12:28:02.176Z,25.75
2023-09-30T12:34:03.813Z,24.99
2023-09-30T12:40:08.821Z,25.21
2023-09-30T12:46:10.670Z,26.67
2023-09-30T12:52:12.654Z,26.92
2023-09-30T12:58:14.359Z,27.54
2023-09-30T13:04:16.125Z,27.45
2023-09-30T13:10:17.761Z,26.05
2023-09-30T13:16:19.673Z,25.96
2023-09-30T13:22:21.430Z,25.02
2023-09-30T13:28:23.012Z,24.75
2023-09-30T13:34:24.621Z,25.62
2023-09-30T13:40:26.674Z,27.01
2023-09-30T13:46:29.394Z,26.81
2023-09-30T13:52:32.844Z,26.53
2023-09-30T13:58:35.795Z,24.93
2023-09-30T14:04:37.375Z,23.83
2023-09-30T14:10:39.275Z,23.22
2023-09-30T14:16:40.943Z,22.84
2023-09-30T14:22:42.645Z,22.59
2023-09-30T14:28:46.234Z,22.08
2023-09-30T14:34:48.156Z,21.77
2023-09-30T14:40:51.272Z,21.47
2023-09-30T14:46:53.454Z,21.28
2023-09-30T14:52:55.302Z,21.23
2023-09-30T14:58:58.113Z,21.04
2023-09-30T15:04:59.789Z,20.80
2023-09-30T15:11:02.011Z,20.71
2023-09-30T15:17:03.629Z,20.46
2023-09-30T15:23:05.535Z,20.45
2023-09-30T15:29:07.097Z,20.28
2023-09-30T15:35:09.435Z,20.34
2023-09-30T15:41:13.788Z,20.17
2023-09-30T15:47:15.327Z,20.08
2023-09-30T15:53:17.348Z,19.81
2023-09-30T15:59:19.634Z,19.63
2023-09-30T16:05:28.754Z,19.37
2023-09-30T16:11:30.418Z,19.02
2023-09-30T16:17:32.557Z,18.70
2023-09-30T16:23:34.115Z,18.56
2023-09-30T16:29:36.571Z,18.33
2023-09-30T16:35:38.148Z,18.08
2023-09-30T16:41:39.689Z,17.77
2023-09-30T16:47:41.323Z,17.58
2023-09-30T16:53:42.914Z,17.42
2023-09-30T16:59:46.526Z,17.29
2023-09-30T17:05:49.177Z,17.10
2023-09-30T17:11:50.712Z,16.91
2023-09-30T17:17:52.292Z,16.73
2023-09-30T17:23:53.940Z,16.57
2023-09-30T17:29:56.427Z,16.34
2023-09-30T17:36:05.161Z,16.05
2023-09-30T17:42:07.017Z,15.77
2023-09-30T17:48:10.524Z,15.50
2023-09-30T17:54:12.297Z,15.25
2023-09-30T18:00:14.575Z,15.00
2023-09-30T18:06:16.408Z,14.76
2023-09-30T18:12:17.993Z,14.58
2023-09-30T18:18:19.597Z,14.42
2023-09-30T18:24:21.407Z,14.31
2023-09-30T18:30:22.969Z,14.20
2023-09-30T18:36:24.628Z,14.07
2023-09-30T18:42:26.648Z,13.90
2023-09-30T18:48:28.271Z,13.75
2023-09-30T18:54:30.126Z,13.59
2023-09-30T19:00:32.892Z,13.46
2023-09-30T19:06:34.936Z,13.32
2023-09-30T19:12:36.594Z,13.17
2023-09-30T19:18:38.213Z,13.03
2023-09-30T19:24:39.844Z,12.91
2023-09-30T19:30:44.208Z,12.78
2023-09-30T19:36:46.000Z,12.67
2023-09-30T19:42:53.105Z,12.55
2023-09-30T19:48:55.910Z,12.43
2023-09-30T19:54:57.661Z,12.35
2023-09-30T20:00:59.525Z,12.22
2023-09-30T20:07:01.822Z,12.12
2023-09-30T20:13:09.115Z,12.01
2023-09-30T20:19:11.402Z,11.87
2023-09-30T20:25:14.912Z,11.76
2023-09-30T20:31:17.049Z,11.67
2023-09-30T20:37:18.686Z,11.57
2023-09-30T20:43:20.314Z,11.48
2023-09-30T20:49:21.997Z,11.39
2023-09-30T20:55:23.620Z,11.32
2023-09-30T21:01:25.808Z,11.24
2023-09-30T21:07:28.911Z,11.16
2023-09-30T21:13:30.529Z,11.10
2023-09-30T21:19:32.145Z,11.01
2023-09-30T21:25:36.881Z,10.94
2023-09-30T21:31:38.569Z,10.89
2023-09-30T21:37:40.208Z,10.84
2023-09-30T21:43:42.247Z,10.79
2023-09-30T21:49:44.766Z,10.71
2023-09-30T21:55:48.607Z,10.64
2023-09-30T22:01:50.202Z,10.57
2023-09-30T22:07:51.779Z,10.52
2023-09-30T22:13:53.319Z,10.47
2023-09-30T22:19:54.864Z,10.44
2023-09-30T22:25:56.438Z,10.35
2023-09-30T22:31:58.014Z,10.32
2023-09-30T22:38:00.812Z,10.27
2023-09-30T22:44:02.322Z,10.20
2023-09-30T22:50:04.100Z,10.15
2023-09-30T22:56:05.679Z,10.08
2023-09-30T23:02:07.951Z,10.00
2023-09-30T23:08:09.557Z,9.93
2023-09-30T23:14:11.084Z,9.86
2023-09-30T23:20:15.977Z,9.79
2023-09-30T23:26:19.715Z,9.71
2023-09-30T23:32:21.313Z,9.65
2023-09-30T23:38:23.282Z,9.56
2023-09-30T23:44:25.197Z,9.50
2023-09-30T23:50:27.258Z,9.43
2023-09-30T23:56:29.693Z,9.37
